United States Military Acade, New York
Current Conditions -  °F | °C
As of 3:45 PM on Monday 22 Dec 2014 (Local Time) from KSWF Reporting Station
Haze Haze  
Wind Chill: 37°   Ceiling: 1800
Heat Index: 37°   Visibility: 6mi
Dew Point: 34°   Wind: 0mph
Humidity: 87%   Direction: NA
Pressure: 30.26"   Gusts: NA
Location:  41.3927°N, 73.9741°W
Report Text: KSWF 222045Z 00000KT 6SM BR BKN018 OVC035 03/01 A3026
Loading
Personal Weather Stations






























Interactive Weather Map New forecast layout! Learn more

10-Day Weather Forecast

Advertisements
Track Severe Weather on mobile